createdAt,value
2018-02-25T00:00:17.636Z,98763.75
2018-02-25T00:02:45.311Z,98771.12
2018-02-25T00:05:13.054Z,98766.86
2018-02-25T00:07:40.737Z,98768.13
2018-02-25T00:10:08.764Z,98741.63
2018-02-25T00:12:36.452Z,98737.41
2018-02-25T00:15:04.120Z,98742.81
2018-02-25T00:17:31.856Z,98735.64
2018-02-25T00:19:59.547Z,98737.47
2018-02-25T00:22:30.213Z,98743.81
2018-02-25T00:24:57.938Z,98744.75
2018-02-25T00:27:25.776Z,98741.32
2018-02-25T00:29:53.457Z,98740.44
2018-02-25T00:32:21.126Z,98739.00
2018-02-25T00:34:48.821Z,98744.23
2018-02-25T00:37:16.515Z,98748.55
2018-02-25T00:39:44.214Z,98751.48
2018-02-25T00:42:11.884Z,98752.71
2018-02-25T00:44:39.944Z,98744.22
2018-02-25T00:47:07.626Z,98744.91
2018-02-25T00:49:35.322Z,98748.35
2018-02-25T00:52:03.033Z,98738.72
2018-02-25T00:54:30.720Z,98742.48
2018-02-25T00:56:58.520Z,98744.92
2018-02-25T00:59:26.199Z,98740.66
2018-02-25T01:01:54.122Z,98731.62
2018-02-25T01:04:21.816Z,98731.83
2018-02-25T01:06:49.500Z,98732.42
2018-02-25T01:09:17.197Z,98732.97
2018-02-25T01:11:44.877Z,98734.17
2018-02-25T01:14:12.585Z,98734.86
2018-02-25T01:16:40.266Z,98737.17
2018-02-25T01:19:08.453Z,98731.30
2018-02-25T01:21:36.160Z,98740.05
2018-02-25T01:24:03.829Z,98731.90
2018-02-25T01:26:32.135Z,98736.49
2018-02-25T01:28:59.811Z,98733.73
2018-02-25T01:31:27.517Z,98744.98
2018-02-25T01:33:55.324Z,98748.86
2018-02-25T01:36:23.196Z,98746.23
2018-02-25T01:38:50.883Z,98746.94
2018-02-25T01:41:18.664Z,98748.25
2018-02-25T01:43:46.690Z,98751.70
2018-02-25T01:46:14.357Z,98748.53
2018-02-25T01:48:42.053Z,98747.23
2018-02-25T01:51:09.751Z,98740.57
2018-02-25T01:53:37.649Z,98739.74
2018-02-25T01:56:05.343Z,98746.41
2018-02-25T01:58:33.028Z,98751.61
2018-02-25T02:01:00.814Z,98746.44
2018-02-25T02:03:28.501Z,98755.02
2018-02-25T02:05:56.426Z,98746.75
2018-02-25T02:08:24.135Z,98749.44
2018-02-25T02:10:51.837Z,98747.94
2018-02-25T02:13:19.544Z,98753.70
2018-02-25T02:15:47.240Z,98755.10
2018-02-25T02:18:14.946Z,98754.83
2018-02-25T02:20:42.628Z,98756.11
2018-02-25T02:23:10.636Z,98753.72
2018-02-25T02:25:38.307Z,98754.11
2018-02-25T02:28:05.992Z,98758.68
2018-02-25T02:30:33.684Z,98767.44
2018-02-25T02:33:01.359Z,98760.35
2018-02-25T02:35:29.063Z,98765.67
2018-02-25T02:37:56.811Z,98763.23
2018-02-25T02:40:24.763Z,98765.45
2018-02-25T02:42:52.449Z,98763.75
2018-02-25T02:45:20.137Z,98757.49
2018-02-25T02:47:47.831Z,98765.17
2018-02-25T02:50:15.505Z,98753.83
2018-02-25T02:52:43.212Z,98760.00
2018-02-25T02:55:10.925Z,98758.59
2018-02-25T02:57:38.804Z,98752.71
2018-02-25T03:00:06.545Z,98759.36
2018-02-25T03:02:34.216Z,98759.59
2018-02-25T03:05:01.912Z,98755.61
2018-02-25T03:07:29.593Z,98757.02
2018-02-25T03:09:57.295Z,98752.48
2018-02-25T03:12:24.977Z,98752.30
2018-02-25T03:14:52.962Z,98754.45
2018-02-25T03:17:20.635Z,98754.19
2018-02-25T03:19:48.299Z,98752.62
2018-02-25T03:22:16.109Z,98756.13
2018-02-25T03:24:43.794Z,98753.28
2018-02-25T03:27:11.480Z,98755.36
2018-02-25T03:29:39.159Z,98754.61
2018-02-25T03:32:06.876Z,98755.50
2018-02-25T03:34:34.567Z,98755.95
2018-02-25T03:37:02.259Z,98751.98
2018-02-25T03:39:29.960Z,98756.37
2018-02-25T03:41:57.624Z,98758.78
2018-02-25T03:44:25.332Z,98761.91
2018-02-25T03:46:53.003Z,98764.83
2018-02-25T03:49:22.384Z,98758.78
2018-02-25T03:51:50.078Z,98759.59
2018-02-25T03:54:17.812Z,98761.23
2018-02-25T03:56:45.518Z,98759.91
2018-02-25T03:59:13.235Z,98765.95
2018-02-25T04:01:40.939Z,98760.09
2018-02-25T04:04:08.615Z,98757.97
2018-02-25T04:06:36.358Z,98757.53
2018-02-25T04:09:04.042Z,98753.48
2018-02-25T04:11:31.726Z,98750.77
2018-02-25T04:13:59.477Z,98750.16
2018-02-25T04:16:27.162Z,98746.19
2018-02-25T04:18:54.856Z,98749.34
2018-02-25T04:21:22.558Z,98748.22
2018-02-25T04:23:50.255Z,98753.48
2018-02-25T04:26:18.031Z,98751.48
2018-02-25T04:28:45.712Z,98759.48
2018-02-25T04:31:13.433Z,98762.05
2018-02-25T04:33:41.093Z,98757.36
2018-02-25T04:36:08.770Z,98760.28
2018-02-25T04:38:36.473Z,98758.06
2018-02-25T04:41:04.234Z,98755.39
2018-02-25T04:43:32.067Z,98761.82
2018-02-25T04:45:59.736Z,98760.22
2018-02-25T04:48:27.407Z,98760.73
2018-02-25T04:50:55.109Z,98768.62
2018-02-25T04:53:22.826Z,98761.78
2018-02-25T04:55:51.095Z,98757.44
2018-02-25T04:58:18.775Z,98761.41
2018-02-25T05:00:46.637Z,98760.80
2018-02-25T05:03:14.316Z,98761.17
2018-02-25T05:05:41.996Z,98758.01
2018-02-25T05:08:09.692Z,98767.65
2018-02-25T05:10:37.360Z,98764.13
2018-02-25T05:13:05.053Z,98768.03
2018-02-25T05:15:32.743Z,98770.47
2018-02-25T05:18:00.884Z,98774.20
2018-02-25T05:20:28.555Z,98769.77
2018-02-25T05:22:56.220Z,98771.46
2018-02-25T05:25:23.923Z,98771.23
2018-02-25T05:27:51.610Z,98768.08
2018-02-25T05:30:19.305Z,98772.69
2018-02-25T05:32:46.980Z,98772.80
2018-02-25T05:35:14.692Z,98775.97
2018-02-25T05:37:42.364Z,98778.44
2018-02-25T05:40:10.034Z,98781.77
2018-02-25T05:42:37.728Z,98787.44
2018-02-25T05:45:05.399Z,98776.55
2018-02-25T05:47:33.097Z,98787.41
2018-02-25T05:50:00.772Z,98782.21
2018-02-25T05:52:28.612Z,98783.70
2018-02-25T05:54:56.290Z,98788.55
2018-02-25T05:57:23.967Z,98799.25
2018-02-25T05:59:51.665Z,98794.78
2018-02-25T06:02:19.341Z,98794.53
2018-02-25T06:04:47.073Z,98798.39
2018-02-25T06:07:14.744Z,98800.70
2018-02-25T06:09:42.674Z,98806.80
2018-02-25T06:12:10.359Z,98802.36
2018-02-25T06:14:38.034Z,98808.00
2018-02-25T06:17:05.740Z,98810.63
2018-02-25T06:19:33.420Z,98811.45
2018-02-25T06:22:01.144Z,98809.90
2018-02-25T06:24:28.818Z,98807.62
2018-02-25T06:26:56.654Z,98814.77
2018-02-25T06:29:24.331Z,98812.93
2018-02-25T06:31:52.011Z,98817.51
2018-02-25T06:34:19.707Z,98820.78
2018-02-25T06:36:47.411Z,98815.39
2018-02-25T06:39:15.115Z,98815.64
2018-02-25T06:41:42.798Z,98814.28
2018-02-25T06:44:10.714Z,98820.00
2018-02-25T06:46:38.393Z,98822.52
2018-02-25T06:49:06.068Z,98815.48
2018-02-25T06:51:33.760Z,98818.55
2018-02-25T06:54:01.439Z,98823.27
2018-02-25T06:56:29.133Z,98823.14
2018-02-25T06:58:56.808Z,98825.11
2018-02-25T07:01:24.521Z,98823.83
2018-02-25T07:03:52.210Z,98829.15
2018-02-25T07:06:19.896Z,98833.37
2018-02-25T07:08:48.732Z,98832.26
2018-02-25T07:11:16.403Z,98827.50
2018-02-25T07:13:44.113Z,98832.03
2018-02-25T07:16:11.784Z,98826.73
2018-02-25T07:18:39.497Z,98827.97
2018-02-25T07:21:07.172Z,98826.23
2018-02-25T07:23:34.864Z,98821.80
2018-02-25T07:26:02.555Z,98833.10
2018-02-25T07:28:30.219Z,98821.38
2018-02-25T07:30:57.918Z,98819.37
2018-02-25T07:33:25.587Z,98817.14
2018-02-25T07:35:53.309Z,98820.22
2018-02-25T07:38:20.987Z,98821.81
2018-02-25T07:40:48.659Z,98821.43
2018-02-25T07:43:16.357Z,98832.56
2018-02-25T07:45:44.028Z,98827.37
2018-02-25T07:48:11.718Z,98831.23
2018-02-25T07:50:39.385Z,98822.76
2018-02-25T07:53:07.284Z,98833.13
2018-02-25T07:55:34.969Z,98821.59
2018-02-25T07:58:02.640Z,98823.78
2018-02-25T08:00:30.439Z,98820.37
2018-02-25T08:02:58.126Z,98825.88
2018-02-25T08:05:26.572Z,98829.14
2018-02-25T08:07:54.256Z,98817.02
2018-02-25T08:10:22.148Z,98828.38
2018-02-25T08:12:49.835Z,98826.53
2018-02-25T08:15:17.511Z,98826.23
2018-02-25T08:17:45.210Z,98830.39
2018-02-25T08:20:12.889Z,98824.28
2018-02-25T08:22:40.596Z,98828.31
2018-02-25T08:25:08.268Z,98825.58
2018-02-25T08:27:36.300Z,98837.30
2018-02-25T08:30:03.976Z,98827.30
2018-02-25T08:32:31.662Z,98833.61
2018-02-25T08:34:59.360Z,98832.29
2018-02-25T08:37:27.035Z,98827.23
2018-02-25T08:39:54.728Z,98832.27
2018-02-25T08:42:22.413Z,98834.41
2018-02-25T08:44:50.266Z,98838.88
2018-02-25T08:47:17.940Z,98837.83
2018-02-25T08:49:45.619Z,98830.89
2018-02-25T08:52:13.312Z,98836.45
2018-02-25T08:54:40.990Z,98829.69
2018-02-25T08:57:08.692Z,98827.53
2018-02-25T08:59:36.359Z,98824.66
2018-02-25T09:02:04.299Z,98822.69
2018-02-25T09:04:31.977Z,98819.09
2018-02-25T09:06:59.707Z,98832.91
2018-02-25T09:09:27.375Z,98827.13
2018-02-25T09:11:55.064Z,98830.39
2018-02-25T09:14:22.788Z,98824.16
2018-02-25T09:16:50.476Z,98824.70
2018-02-25T09:19:18.177Z,98826.64
2018-02-25T09:21:45.861Z,98827.27
2018-02-25T09:26:47.472Z,98819.55
2018-02-25T09:29:15.234Z,98816.93
2018-02-25T09:31:43.091Z,98807.48
2018-02-25T09:34:10.776Z,98805.48
2018-02-25T09:36:38.442Z,98808.27
2018-02-25T09:39:06.142Z,98808.09
2018-02-25T09:41:33.823Z,98807.62
2018-02-25T09:44:01.713Z,98801.16
2018-02-25T09:46:29.416Z,98802.66
2018-02-25T09:48:57.084Z,98801.22
2018-02-25T09:51:24.811Z,98797.39
2018-02-25T09:53:52.508Z,98796.38
2018-02-25T09:56:20.203Z,98792.52
2018-02-25T09:58:47.873Z,98789.82
2018-02-25T10:01:15.766Z,98792.58
2018-02-25T10:03:43.438Z,98790.80
2018-02-25T10:06:11.117Z,98790.81
2018-02-25T10:08:38.830Z,98793.31
2018-02-25T10:11:06.514Z,98794.06
2018-02-25T10:13:34.355Z,98799.14
2018-02-25T10:16:02.042Z,98791.95
2018-02-25T10:18:29.729Z,98796.86
2018-02-25T10:20:57.429Z,98789.73
2018-02-25T10:23:25.103Z,98789.44
2018-02-25T10:25:52.803Z,98781.64
2018-02-25T10:28:20.479Z,98786.11
2018-02-25T10:30:48.536Z,98779.06
2018-02-25T10:33:16.237Z,98788.19
2018-02-25T10:35:43.920Z,98781.10
2018-02-25T10:38:11.623Z,98774.87
2018-02-25T10:40:39.309Z,98780.67
2018-02-25T10:43:07.040Z,98778.03
2018-02-25T10:45:34.739Z,98772.07
2018-02-25T10:48:02.479Z,98774.61
2018-02-25T10:50:30.164Z,98756.22
2018-02-25T10:52:57.842Z,98765.16
2018-02-25T10:55:25.541Z,98765.53
2018-02-25T10:57:53.230Z,98757.34
2018-02-25T11:00:26.416Z,98746.51
2018-02-25T11:02:54.098Z,98749.81
2018-02-25T11:05:21.971Z,98738.90
2018-02-25T11:07:49.642Z,98738.25
2018-02-25T11:10:17.324Z,98740.06
2018-02-25T11:12:45.039Z,98735.01
2018-02-25T11:15:12.740Z,98732.03
2018-02-25T11:17:40.564Z,98732.19
2018-02-25T11:20:08.235Z,98733.92
2018-02-25T11:22:35.912Z,98724.84
2018-02-25T11:25:03.606Z,98720.64
2018-02-25T11:27:31.279Z,98710.22
2018-02-25T11:29:58.974Z,98722.52
2018-02-25T11:32:26.639Z,98711.22
2018-02-25T11:34:54.623Z,98704.66
2018-02-25T11:37:22.287Z,98705.68
2018-02-25T11:39:49.957Z,98699.36
2018-02-25T11:42:17.656Z,98702.41
2018-02-25T11:44:45.355Z,98695.97
2018-02-25T11:47:13.034Z,98693.50
2018-02-25T11:49:40.704Z,98693.55
2018-02-25T11:52:08.651Z,98693.88
2018-02-25T11:54:36.330Z,98689.31
2018-02-25T11:57:04.000Z,98677.44
2018-02-25T11:59:31.676Z,98677.47
2018-02-25T12:01:59.356Z,98670.50
2018-02-25T12:04:27.066Z,98665.34
2018-02-25T12:06:54.737Z,98665.48
2018-02-25T12:09:22.433Z,98668.58
2018-02-25T12:11:50.099Z,98660.75
2018-02-25T12:14:17.820Z,98663.78
2018-02-25T12:16:45.497Z,98658.55
2018-02-25T12:19:13.171Z,98672.41
2018-02-25T12:21:40.873Z,98659.48
2018-02-25T12:24:08.560Z,98659.28
2018-02-25T12:26:36.259Z,98656.45
2018-02-25T12:29:03.944Z,98648.21
2018-02-25T12:31:31.769Z,98643.89
2018-02-25T12:33:59.439Z,98647.80
2018-02-25T12:36:27.119Z,98642.38
2018-02-25T12:38:54.831Z,98636.66
2018-02-25T12:41:22.508Z,98627.42
2018-02-25T12:43:50.222Z,98633.66
2018-02-25T12:46:17.896Z,98634.58
2018-02-25T12:48:45.829Z,98626.72
2018-02-25T12:51:13.527Z,98623.87
2018-02-25T12:53:41.191Z,98625.66
2018-02-25T12:56:08.890Z,98611.45
2018-02-25T12:58:36.579Z,98613.14
2018-02-25T13:01:04.323Z,98607.54
2018-02-25T13:03:31.989Z,98617.30
2018-02-25T13:05:59.886Z,98607.72
2018-02-25T13:08:27.481Z,98605.76
2018-02-25T13:10:55.075Z,98594.83
2018-02-25T13:13:22.692Z,98594.36
2018-02-25T13:15:50.296Z,98592.02
2018-02-25T13:18:17.954Z,98580.78
2018-02-25T13:20:45.559Z,98581.67
2018-02-25T13:23:13.239Z,98592.31
2018-02-25T13:25:40.861Z,98585.66
2018-02-25T13:28:08.449Z,98588.53
2018-02-25T13:30:36.069Z,98575.86
2018-02-25T13:33:03.668Z,98570.29
2018-02-25T13:35:31.316Z,98571.06
2018-02-25T13:37:58.901Z,98576.78
2018-02-25T13:40:26.501Z,98575.98
2018-02-25T13:42:54.166Z,98576.40
2018-02-25T13:45:21.756Z,98574.07
2018-02-25T13:47:49.635Z,98561.50
2018-02-25T13:50:17.256Z,98566.59
2018-02-25T13:52:44.872Z,98564.91
2018-02-25T13:55:12.460Z,98572.66
2018-02-25T13:57:40.768Z,98567.31
2018-02-25T14:00:08.381Z,98564.25
2018-02-25T14:02:35.985Z,98566.41
2018-02-25T14:05:03.599Z,98559.42
2018-02-25T14:07:31.214Z,98564.22
2018-02-25T14:09:58.858Z,98557.28
2018-02-25T14:12:26.469Z,98555.16
2018-02-25T14:14:54.070Z,98559.92
2018-02-25T14:17:21.681Z,98561.15
2018-02-25T14:19:49.356Z,98554.82
2018-02-25T14:22:17.076Z,98550.39
2018-02-25T14:24:44.674Z,98556.17
2018-02-25T14:27:12.308Z,98552.62
2018-02-25T14:29:39.955Z,98556.18
2018-02-25T14:32:07.665Z,98559.87
2018-02-25T14:34:35.370Z,98563.50
2018-02-25T14:37:03.041Z,98567.96
2018-02-25T14:39:30.741Z,98554.58
2018-02-25T14:41:58.407Z,98560.78
2018-02-25T14:44:26.233Z,98564.78
2018-02-25T14:46:53.912Z,98563.50
2018-02-25T14:49:21.607Z,98554.48
2018-02-25T14:51:49.307Z,98556.00
2018-02-25T14:54:16.979Z,98555.59
2018-02-25T14:56:44.689Z,98550.81
2018-02-25T14:59:12.375Z,98555.79
2018-02-25T15:01:40.310Z,98548.00
2018-02-25T15:04:07.991Z,98560.04
2018-02-25T15:06:35.667Z,98544.14
2018-02-25T15:09:03.371Z,98553.08
2018-02-25T15:11:31.133Z,98542.34
2018-02-25T15:13:58.824Z,98541.05
2018-02-25T15:16:26.487Z,98541.89
2018-02-25T15:18:54.321Z,98537.44
2018-02-25T15:21:21.981Z,98537.72
2018-02-25T15:23:49.772Z,98539.33
2018-02-25T15:26:17.495Z,98533.56
2018-02-25T15:28:45.162Z,98535.47
2018-02-25T15:31:12.865Z,98530.34
2018-02-25T15:33:40.552Z,98530.66
2018-02-25T15:36:08.253Z,98529.53
2018-02-25T15:38:35.926Z,98530.12
2018-02-25T15:41:03.609Z,98527.22
2018-02-25T15:43:31.329Z,98529.06
2018-02-25T15:45:59.209Z,98526.23
2018-02-25T15:48:26.911Z,98529.16
2018-02-25T15:50:54.840Z,98530.91
2018-02-25T15:53:22.735Z,98529.48
2018-02-25T15:55:50.405Z,98535.17
2018-02-25T15:58:18.249Z,98536.14
2018-02-25T16:00:45.946Z,98537.13
2018-02-25T16:03:13.610Z,98541.72
2018-02-25T16:05:41.315Z,98539.20
2018-02-25T16:08:09.000Z,98532.68
2018-02-25T16:10:36.830Z,98542.73
2018-02-25T16:13:04.502Z,98543.92
2018-02-25T16:15:32.307Z,98540.30
2018-02-25T16:18:00.008Z,98542.19
2018-02-25T16:20:27.688Z,98541.27
2018-02-25T16:22:55.602Z,98540.81
2018-02-25T16:25:23.273Z,98544.79
2018-02-25T16:27:50.960Z,98549.16
2018-02-25T16:30:18.663Z,98545.05
2018-02-25T16:32:46.350Z,98543.38
2018-02-25T16:35:14.091Z,98552.80
2018-02-25T16:37:41.772Z,98547.23
2018-02-25T16:40:09.648Z,98550.11
2018-02-25T16:42:37.330Z,98546.20
2018-02-25T16:45:05.000Z,98550.10
2018-02-25T16:47:32.700Z,98546.83
2018-02-25T16:50:00.367Z,98557.36
2018-02-25T16:52:28.066Z,98561.28
2018-02-25T16:54:55.736Z,98564.91
2018-02-25T16:57:23.428Z,98563.02
2018-02-25T16:59:51.113Z,98559.14
2018-02-25T17:02:19.102Z,98566.23
2018-02-25T17:04:46.789Z,98567.77
2018-02-25T17:07:14.449Z,98579.64
2018-02-25T17:09:42.202Z,98578.48
2018-02-25T17:12:09.848Z,98578.98
2018-02-25T17:14:37.553Z,98580.09
2018-02-25T17:17:05.236Z,98585.48
2018-02-25T17:19:33.150Z,98588.11
2018-02-25T17:22:00.827Z,98588.55
2018-02-25T17:24:28.529Z,98590.50
2018-02-25T17:26:56.251Z,98587.88
2018-02-25T17:29:24.132Z,98590.91
2018-02-25T17:31:51.903Z,98596.83
2018-02-25T17:34:19.615Z,98592.63
2018-02-25T17:36:47.488Z,98596.14
2018-02-25T17:39:15.167Z,98595.90
2018-02-25T17:41:42.844Z,98596.66
2018-02-25T17:44:10.542Z,98605.44
2018-02-25T17:46:38.227Z,98607.08
2018-02-25T17:49:05.934Z,98609.63
2018-02-25T17:51:33.630Z,98611.47
2018-02-25T17:54:01.347Z,98612.59
2018-02-25T17:56:29.019Z,98612.47
2018-02-25T17:58:56.982Z,98608.81
2018-02-25T18:01:24.695Z,98609.43
2018-02-25T18:03:52.366Z,98615.01
2018-02-25T18:06:20.068Z,98609.91
2018-02-25T18:08:47.750Z,98618.69
2018-02-25T18:11:15.741Z,98607.59
2018-02-25T18:13:43.417Z,98604.22
2018-02-25T18:16:11.087Z,98617.53
2018-02-25T18:18:38.798Z,98614.65
2018-02-25T18:21:06.472Z,98621.52
2018-02-25T18:23:34.162Z,98621.53
2018-02-25T18:26:01.837Z,98626.27
2018-02-25T18:28:29.850Z,98621.35
2018-02-25T18:30:57.517Z,98623.27
2018-02-25T18:33:25.195Z,98625.88
2018-02-25T18:35:52.892Z,98623.31
2018-02-25T18:38:20.557Z,98622.45
2018-02-25T18:40:48.260Z,98624.16
2018-02-25T18:43:15.947Z,98628.75
2018-02-25T18:45:43.784Z,98623.64
2018-02-25T18:48:11.453Z,98626.78
2018-02-25T18:50:39.133Z,98630.58
2018-02-25T18:53:06.812Z,98631.93
2018-02-25T18:55:34.483Z,98635.34
2018-02-25T18:58:02.168Z,98634.00
2018-02-25T19:00:29.835Z,98636.69
2018-02-25T19:02:57.584Z,98635.98
2018-02-25T19:05:25.264Z,98644.84
2018-02-25T19:07:52.953Z,98646.92
2018-02-25T19:10:20.656Z,98646.20
2018-02-25T19:12:48.325Z,98645.00
2018-02-25T19:15:16.161Z,98646.27
2018-02-25T19:17:43.822Z,98644.30
2018-02-25T19:20:11.495Z,98643.47
2018-02-25T19:22:39.188Z,98650.09
2018-02-25T19:25:06.884Z,98649.11
2018-02-25T19:27:34.594Z,98654.04
2018-02-25T19:30:02.269Z,98645.09
2018-02-25T19:32:29.985Z,98642.83
2018-02-25T19:34:57.643Z,98649.72
2018-02-25T19:37:30.941Z,98645.91
2018-02-25T19:40:03.973Z,98648.44
2018-02-25T19:42:31.667Z,98653.38
2018-02-25T19:44:59.378Z,98654.39
2018-02-25T19:47:27.051Z,98649.22
2018-02-25T19:49:54.749Z,98655.31
2018-02-25T19:52:22.410Z,98657.69
2018-02-25T19:54:50.429Z,98653.80
2018-02-25T19:57:18.093Z,98660.02
2018-02-25T19:59:45.764Z,98659.22
2018-02-25T20:02:13.448Z,98661.34
2018-02-25T20:04:41.129Z,98662.88
2018-02-25T20:07:08.817Z,98657.59
2018-02-25T20:09:36.503Z,98666.13
2018-02-25T20:12:04.256Z,98663.38
2018-02-25T20:14:32.034Z,98660.55
2018-02-25T20:16:59.727Z,98660.85
2018-02-25T20:19:27.386Z,98661.45
2018-02-25T20:21:55.083Z,98655.99
2018-02-25T20:24:22.761Z,98659.00
2018-02-25T20:26:50.458Z,98656.58
2018-02-25T20:29:18.149Z,98661.88
2018-02-25T20:31:45.869Z,98658.77
2018-02-25T20:34:13.549Z,98660.11
2018-02-25T20:36:41.244Z,98665.12
2018-02-25T20:39:08.920Z,98659.43
2018-02-25T20:41:36.583Z,98660.06
2018-02-25T20:44:04.269Z,98660.94
2018-02-25T20:46:31.935Z,98659.78
2018-02-25T20:48:59.813Z,98670.06
2018-02-25T20:51:27.514Z,98664.67
2018-02-25T20:53:55.251Z,98670.61
2018-02-25T20:56:22.911Z,98671.73
2018-02-25T20:58:50.576Z,98669.63
2018-02-25T21:01:18.270Z,98665.88
2018-02-25T21:03:45.932Z,98669.55
2018-02-25T21:06:13.953Z,98669.16
2018-02-25T21:08:41.620Z,98674.70
2018-02-25T21:11:09.287Z,98674.95
2018-02-25T21:13:36.986Z,98668.41
2018-02-25T21:16:04.651Z,98677.41
2018-02-25T21:18:32.334Z,98674.58
2018-02-25T21:21:00.034Z,98676.95
2018-02-25T21:23:27.906Z,98677.37
2018-02-25T21:25:55.572Z,98677.73
2018-02-25T21:28:23.257Z,98678.50
2018-02-25T21:30:50.961Z,98674.44
2018-02-25T21:33:18.649Z,98677.98
2018-02-25T21:35:46.615Z,98684.50
2018-02-25T21:38:14.284Z,98683.61
2018-02-25T21:40:42.041Z,98684.23
2018-02-25T21:43:09.743Z,98686.49
2018-02-25T21:45:37.429Z,98691.05
2018-02-25T21:48:05.140Z,98691.20
2018-02-25T21:50:32.825Z,98686.19
2018-02-25T21:53:00.869Z,98686.84
2018-02-25T21:55:28.573Z,98697.17
2018-02-25T21:58:02.011Z,98683.73
2018-02-25T22:00:35.091Z,98687.39
2018-02-25T22:03:08.524Z,98691.55
2018-02-25T22:05:36.196Z,98690.60
2018-02-25T22:08:03.880Z,98687.52
2018-02-25T22:10:31.575Z,98696.59
2018-02-25T22:12:59.256Z,98685.70
2018-02-25T22:15:26.956Z,98696.42
2018-02-25T22:17:54.628Z,98695.28
2018-02-25T22:20:22.419Z,98696.23
2018-02-25T22:22:50.144Z,98696.58
2018-02-25T22:25:17.812Z,98692.23
2018-02-25T22:27:45.514Z,98697.84
2018-02-25T22:30:13.188Z,98700.05
2018-02-25T22:32:40.876Z,98691.52
2018-02-25T22:35:08.541Z,98687.24
2018-02-25T22:37:36.396Z,98689.73
2018-02-25T22:40:04.084Z,98699.22
2018-02-25T22:42:31.758Z,98696.79
2018-02-25T22:44:59.473Z,98698.66
2018-02-25T22:47:27.136Z,98696.30
2018-02-25T22:49:54.828Z,98698.00
2018-02-25T22:52:22.502Z,98694.27
2018-02-25T22:54:50.551Z,98702.26
2018-02-25T22:57:18.220Z,98702.00
2018-02-25T22:59:45.900Z,98696.39
2018-02-25T23:02:13.601Z,98703.20
2018-02-25T23:04:41.285Z,98698.58
2018-02-25T23:07:08.976Z,98702.75
2018-02-25T23:09:36.648Z,98704.52
2018-02-25T23:12:04.363Z,98702.50
2018-02-25T23:14:32.023Z,98701.47
2018-02-25T23:16:59.699Z,98707.96
2018-02-25T23:19:27.396Z,98709.67
2018-02-25T23:21:55.063Z,98709.95
2018-02-25T23:24:22.757Z,98706.95
2018-02-25T23:26:50.478Z,98704.83
2018-02-25T23:29:18.369Z,98704.98
2018-02-25T23:31:46.050Z,98705.10
2018-02-25T23:34:13.729Z,98702.09
2018-02-25T23:36:41.443Z,98703.38
2018-02-25T23:39:09.121Z,98706.45
2018-02-25T23:41:36.811Z,98700.16
2018-02-25T23:44:04.476Z,98697.25
2018-02-25T23:46:33.983Z,98697.80
2018-02-25T23:49:01.643Z,98697.31
2018-02-25T23:51:29.330Z,98698.63
2018-02-25T23:53:57.013Z,98693.80
2018-02-25T23:56:24.684Z,98690.16
2018-02-25T23:58:52.584Z,98692.17
